Main page
METAR-TAF:

METAR-TAF

Airports :

London Stansted Airport

London-Stansted, England

latitude: 51-53N, longitude: 000-14E, elevation: 106 m

Current weather observation

The report was made 21 minutes ago, at 03:50 UTC
Wind 1 kt from the West/Southwest
Temperature 14°C
Humidity 100%
Pressure 1020 hPa
Visibility: 8000 m

METAR: EGSS 240350Z AUTO 24001KT 8000 NCD 14/14 Q1020

Time: 05:11 (04:11 UTC)

Forecast

The report was made 28 minutes ago, at 03:43 UTC
Forecast valid from 24 at 03 UTC to 25 at 06 UTC
Wind 5 kt from the South/Southwest
Visibility 10 km or more
Scattered clouds at a height of 4000 ft
Probability 40%
from 24 at 04 UTC to 24 at 07 UTC
Visibility: 4000 m
haze
Becoming
from 24 at 13 UTC to 24 at 16 UTC
Wind 10 kt from the East/Southeast

TAF: EGSS 240343Z 2403/2506 20005KT 9999 SCT040 PROB40 2404/2407 4000 HZ BECMG 2413/2416 12010KT

Weather observations and forecasts of more than 4000 airports (METAR and TAF reports).

The available stations are represented by yellow and red dots on the map.

Hover mouse over dot to see the name of the station.

Then click to see weather observations and forecasts.

To change the map : click on the green buttons with a black cross to zoom in, on the green button with a dash to zoom out, or on the green arrows for adjacent maps.


METAR-TAF: